Ivanovo, Russia
Current Conditions -  °F | °C
As of 9:00 PM on Wednesday 28 Jan 2015 (Local Time) from UUDL Reporting Station
Overcast Overcast  
Wind Chill: 17°   Ceiling: 3900
Heat Index: 25°   Visibility: 6mi
Dew Point: 19°   Wind: 7mph
Humidity: 80%   Direction: 170°S
Pressure: 29.85"   Gusts: NA
Location:  57.01°N, 40.99°E
Report Text: UUDL 281800Z 17003MPS 9999 BKN039 OVC100 M04/M07 Q1011 NOSIGRMK QFE750 23491038
Loading
Personal Weather Stations






























Interactive Weather Map New forecast layout! Learn more

10-Day Weather Forecast

Advertisements
Track Severe Weather on mobile